createdAt,value
2019-05-23T00:00:28.787Z,99.90
2019-05-23T00:02:57.292Z,99.90
2019-05-23T00:05:39.824Z,99.90
2019-05-23T00:08:10.134Z,99.90
2019-05-23T00:10:40.420Z,99.90
2019-05-23T00:13:13.861Z,99.90
2019-05-23T00:15:43.940Z,99.90
2019-05-23T00:18:12.815Z,99.90
2019-05-23T00:20:42.613Z,99.90
2019-05-23T00:23:13.120Z,99.90
2019-05-23T00:25:43.912Z,99.90
2019-05-23T00:28:12.821Z,99.90
2019-05-23T00:31:01.319Z,99.90
2019-05-23T00:33:31.416Z,99.90
2019-05-23T00:36:00.409Z,99.90
2019-05-23T00:38:28.788Z,99.90
2019-05-23T00:40:57.460Z,99.90
2019-05-23T00:43:27.490Z,99.90
2019-05-23T00:45:57.030Z,99.90
2019-05-23T00:48:25.557Z,99.90
2019-05-23T00:50:54.231Z,99.90
2019-05-23T00:53:23.360Z,99.90
2019-05-23T00:55:52.130Z,99.90
2019-05-23T00:58:20.793Z,99.90
2019-05-23T01:00:49.576Z,99.90
2019-05-23T01:03:18.891Z,99.90
2019-05-23T01:05:48.110Z,99.90
2019-05-23T01:08:16.504Z,99.90
2019-05-23T01:10:45.362Z,99.90
2019-05-23T01:13:15.286Z,99.90
2019-05-23T01:15:44.247Z,99.90
2019-05-23T01:18:13.189Z,99.90
2019-05-23T01:20:55.410Z,99.90
2019-05-23T01:23:25.455Z,99.90
2019-05-23T01:25:53.924Z,99.90
2019-05-23T01:28:22.924Z,99.90
2019-05-23T01:30:53.479Z,99.90
2019-05-23T01:33:21.567Z,99.90
2019-05-23T01:35:50.334Z,99.90
2019-05-23T01:38:19.552Z,99.90
2019-05-23T01:40:48.128Z,99.90
2019-05-23T01:43:18.845Z,99.90
2019-05-23T01:45:48.082Z,99.90
2019-05-23T01:48:16.952Z,99.90
2019-05-23T01:50:46.481Z,99.90
2019-05-23T01:53:15.896Z,99.90
2019-05-23T01:55:46.824Z,99.90
2019-05-23T01:58:15.950Z,99.90
2019-05-23T02:00:44.408Z,99.90
2019-05-23T02:03:13.758Z,99.90
2019-05-23T02:05:42.789Z,99.90
2019-05-23T02:08:14.441Z,99.90
2019-05-23T02:10:43.614Z,99.90
2019-05-23T02:13:12.572Z,99.90
2019-05-23T02:15:41.507Z,99.90
2019-05-23T02:18:10.178Z,99.90
2019-05-23T02:20:39.135Z,99.90
2019-05-23T02:23:07.608Z,99.90
2019-05-23T02:25:36.636Z,99.90
2019-05-23T02:28:06.295Z,99.90
2019-05-23T02:30:36.522Z,99.90
2019-05-23T02:33:05.369Z,99.90
2019-05-23T02:35:34.407Z,99.90
2019-05-23T02:38:04.730Z,99.90
2019-05-23T02:40:43.753Z,99.90
2019-05-23T02:43:16.655Z,99.90
2019-05-23T02:45:50.202Z,99.90
2019-05-23T02:48:20.285Z,99.90
2019-05-23T02:50:58.367Z,99.90
2019-05-23T02:53:30.418Z,99.90
2019-05-23T02:56:02.470Z,99.90
2019-05-23T02:58:51.918Z,99.90
2019-05-23T03:01:36.993Z,99.90
2019-05-23T03:04:17.158Z,99.90
2019-05-23T03:06:46.012Z,99.90
2019-05-23T03:09:16.503Z,99.90
2019-05-23T03:11:47.119Z,99.90
2019-05-23T03:14:16.802Z,99.90
2019-05-23T03:16:48.433Z,99.90
2019-05-23T03:19:23.895Z,99.90
2019-05-23T03:21:54.591Z,99.90
2019-05-23T03:24:24.795Z,99.90
2019-05-23T03:27:02.785Z,99.90
2019-05-23T03:29:33.289Z,99.90
2019-05-23T03:32:02.879Z,99.90
2019-05-23T03:34:35.731Z,99.90
2019-05-23T03:37:05.538Z,99.90
2019-05-23T03:39:35.133Z,99.90
2019-05-23T03:42:03.934Z,99.90
2019-05-23T03:44:33.784Z,99.90
2019-05-23T03:47:03.649Z,99.90
2019-05-23T03:49:33.764Z,99.90
2019-05-23T03:52:03.868Z,99.90
2019-05-23T03:54:32.736Z,99.90
2019-05-23T03:57:01.159Z,99.90
2019-05-23T03:59:31.281Z,99.90
2019-05-23T04:02:01.388Z,99.90
2019-05-23T04:04:30.258Z,99.90
2019-05-23T04:06:58.828Z,99.90
2019-05-23T04:09:27.942Z,99.90
2019-05-23T04:11:56.443Z,99.90
2019-05-23T04:14:26.625Z,99.90
2019-05-23T04:16:55.469Z,99.90
2019-05-23T04:19:24.202Z,99.90
2019-05-23T04:21:52.956Z,99.90
2019-05-23T04:24:21.445Z,99.90
2019-05-23T04:26:50.497Z,99.90
2019-05-23T04:29:18.960Z,99.90
2019-05-23T04:32:03.791Z,99.90
2019-05-23T04:34:17.677Z,99.90
2019-05-23T04:36:46.342Z,99.90
2019-05-23T04:39:14.997Z,99.90
2019-05-23T04:41:44.055Z,99.90
2019-05-23T04:44:12.692Z,99.90
2019-05-23T04:46:41.102Z,99.90
2019-05-23T04:49:09.557Z,99.90
2019-05-23T04:51:38.629Z,99.90
2019-05-23T04:54:07.773Z,99.90
2019-05-23T04:56:36.447Z,99.90
2019-05-23T04:59:05.293Z,99.90
2019-05-23T05:01:34.206Z,99.90
2019-05-23T05:04:04.089Z,99.90
2019-05-23T05:06:32.548Z,99.90
2019-05-23T05:09:01.107Z,99.90
2019-05-23T05:11:30.621Z,99.90
2019-05-23T05:13:59.551Z,99.90
2019-05-23T05:16:28.230Z,99.90
2019-05-23T05:18:56.900Z,99.90
2019-05-23T05:21:25.384Z,99.90
2019-05-23T05:23:53.780Z,99.90
2019-05-23T05:26:23.144Z,99.90
2019-05-23T05:28:52.040Z,99.90
2019-05-23T05:31:20.809Z,99.90
2019-05-23T05:33:49.268Z,99.90
2019-05-23T05:36:17.698Z,99.90
2019-05-23T05:38:46.443Z,99.90
2019-05-23T05:41:16.346Z,99.90
2019-05-23T05:43:44.917Z,99.90
2019-05-23T05:46:13.800Z,99.90
2019-05-23T05:48:42.951Z,99.90
2019-05-23T05:51:12.187Z,99.90
2019-05-23T05:53:41.098Z,99.90
2019-05-23T05:56:09.512Z,99.90
2019-05-23T05:58:37.933Z,99.90
2019-05-23T06:01:10.690Z,99.90
2019-05-23T06:03:39.847Z,99.90
2019-05-23T06:06:15.907Z,99.90
2019-05-23T06:08:45.940Z,99.90
2019-05-23T06:11:16.068Z,99.90
2019-05-23T06:13:46.076Z,99.90
2019-05-23T06:16:14.933Z,99.90
2019-05-23T06:18:43.348Z,99.90
2019-05-23T06:21:13.469Z,99.90
2019-05-23T06:23:42.264Z,99.90
2019-05-23T06:26:10.840Z,99.90
2019-05-23T06:28:41.179Z,99.90
2019-05-23T06:31:11.220Z,99.90
2019-05-23T06:33:39.934Z,99.90
2019-05-23T06:36:09.458Z,99.90
2019-05-23T06:38:38.864Z,99.90
2019-05-23T06:41:07.933Z,99.90
2019-05-23T06:43:37.165Z,99.90
2019-05-23T06:46:06.971Z,99.20
2019-05-23T06:48:36.133Z,98.90
2019-05-23T06:51:05.018Z,99.90
2019-05-23T06:53:33.796Z,98.30
2019-05-23T06:56:02.243Z,98.20
2019-05-23T06:58:31.074Z,98.80
2019-05-23T07:00:59.592Z,97.30
2019-05-23T07:03:41.454Z,97.00
2019-05-23T07:05:58.655Z,96.90
2019-05-23T07:08:30.138Z,97.40
2019-05-23T07:10:58.858Z,96.40
2019-05-23T07:13:29.937Z,96.40
2019-05-23T07:15:58.418Z,96.10
2019-05-23T07:18:27.355Z,94.40
2019-05-23T07:20:56.342Z,95.20
2019-05-23T07:23:24.755Z,94.70
2019-05-23T07:25:53.177Z,95.30
2019-05-23T07:28:21.601Z,94.60
2019-05-23T07:30:51.079Z,93.70
2019-05-23T07:33:19.484Z,93.50
2019-05-23T07:35:47.875Z,93.00
2019-05-23T07:38:16.554Z,93.10
2019-05-23T07:40:45.638Z,92.40
2019-05-23T07:43:14.564Z,91.90
2019-05-23T07:45:45.075Z,92.30
2019-05-23T07:48:13.244Z,91.50
2019-05-23T07:50:41.920Z,91.10
2019-05-23T07:53:12.252Z,90.80
2019-05-23T07:55:48.687Z,90.10
2019-05-23T07:58:17.265Z,90.10
2019-05-23T08:00:50.286Z,90.00
2019-05-23T08:03:19.737Z,89.10
2019-05-23T08:05:48.680Z,88.40
2019-05-23T08:08:17.531Z,90.10
2019-05-23T08:10:46.495Z,89.70
2019-05-23T08:13:15.264Z,84.50
2019-05-23T08:15:44.947Z,84.40
2019-05-23T08:18:14.658Z,85.20
2019-05-23T08:20:43.117Z,83.40
2019-05-23T08:23:11.613Z,82.60
2019-05-23T08:25:40.005Z,85.00
2019-05-23T08:28:10.931Z,85.10
2019-05-23T08:30:39.745Z,85.40
2019-05-23T08:33:10.028Z,82.90
2019-05-23T08:35:38.741Z,87.40
2019-05-23T08:38:08.012Z,81.80
2019-05-23T08:40:37.668Z,85.40
2019-05-23T08:43:07.070Z,81.40
2019-05-23T08:45:35.546Z,76.80
2019-05-23T08:48:04.820Z,79.30
2019-05-23T08:50:33.586Z,79.40
2019-05-23T08:53:02.809Z,81.40
2019-05-23T08:55:31.692Z,79.80
2019-05-23T08:58:00.541Z,80.50
2019-05-23T09:00:29.762Z,82.10
2019-05-23T09:02:59.284Z,81.60
2019-05-23T09:05:32.554Z,77.90
2019-05-23T09:08:01.961Z,81.20
2019-05-23T09:10:31.060Z,76.00
2019-05-23T09:13:00.012Z,79.30
2019-05-23T09:15:28.544Z,76.60
2019-05-23T09:17:57.283Z,78.20
2019-05-23T09:20:25.956Z,73.90
2019-05-23T09:22:54.614Z,83.40
2019-05-23T09:25:23.841Z,75.20
2019-05-23T09:27:53.768Z,87.20
2019-05-23T09:30:23.680Z,72.50
2019-05-23T09:32:52.535Z,72.30
2019-05-23T09:35:22.376Z,76.40
2019-05-23T09:37:51.044Z,75.20
2019-05-23T09:40:19.624Z,92.40
2019-05-23T09:42:48.017Z,72.80
2019-05-23T09:45:17.989Z,71.80
2019-05-23T09:47:50.930Z,74.30
2019-05-23T09:50:18.360Z,75.40
2019-05-23T09:52:46.815Z,77.20
2019-05-23T09:55:15.392Z,71.80
2019-05-23T09:57:43.869Z,73.20
2019-05-23T10:00:14.544Z,75.00
2019-05-23T10:02:43.091Z,72.60
2019-05-23T10:05:42.636Z,70.00
2019-05-23T10:08:02.569Z,71.30
2019-05-23T10:10:31.735Z,68.80
2019-05-23T10:13:00.167Z,74.20
2019-05-23T10:15:55.592Z,72.40
2019-05-23T10:18:24.271Z,72.30
2019-05-23T10:20:52.957Z,68.40
2019-05-23T10:23:21.345Z,69.90
2019-05-23T10:25:49.758Z,68.50
2019-05-23T10:28:18.185Z,69.70
2019-05-23T10:30:46.880Z,72.10
2019-05-23T10:33:15.751Z,67.20
2019-05-23T10:35:58.942Z,73.30
2019-05-23T10:38:13.583Z,72.10
2019-05-23T10:40:42.601Z,81.80
2019-05-23T10:43:30.361Z,66.60
2019-05-23T10:46:00.502Z,65.80
2019-05-23T10:48:30.738Z,64.20
2019-05-23T10:50:58.362Z,65.20
2019-05-23T10:53:26.760Z,63.30
2019-05-23T10:55:55.177Z,66.30
2019-05-23T10:58:24.627Z,67.90
2019-05-23T11:00:54.368Z,66.80
2019-05-23T11:03:24.768Z,64.60
2019-05-23T11:05:53.201Z,62.70
2019-05-23T11:08:27.629Z,62.80
2019-05-23T11:10:52.621Z,63.60
2019-05-23T11:13:21.500Z,62.60
2019-05-23T11:15:49.912Z,61.80
2019-05-23T11:18:18.566Z,62.20
2019-05-23T11:20:47.047Z,60.20
2019-05-23T11:23:17.149Z,61.50
2019-05-23T11:25:45.624Z,59.70
2019-05-23T11:28:14.027Z,60.30
2019-05-23T11:30:45.705Z,63.20
2019-05-23T11:33:14.767Z,60.10
2019-05-23T11:35:44.090Z,61.80
2019-05-23T11:38:13.081Z,60.80
2019-05-23T11:40:42.343Z,63.40
2019-05-23T11:43:10.737Z,58.80
2019-05-23T11:45:45.919Z,63.80
2019-05-23T11:48:11.908Z,64.40
2019-05-23T11:50:40.465Z,62.40
2019-05-23T11:53:08.856Z,76.70
2019-05-23T11:55:37.358Z,63.70
2019-05-23T11:58:06.417Z,67.30
2019-05-23T12:00:54.763Z,60.00
2019-05-23T12:03:23.361Z,59.50
2019-05-23T12:05:53.283Z,61.10
2019-05-23T12:08:21.949Z,59.70
2019-05-23T12:10:50.428Z,62.80
2019-05-23T12:13:19.214Z,62.00
2019-05-23T12:15:48.596Z,60.40
2019-05-23T12:18:17.200Z,60.90
2019-05-23T12:20:45.593Z,60.10
2019-05-23T12:23:14.018Z,58.30
2019-05-23T12:25:42.432Z,60.90
2019-05-23T12:28:12.354Z,56.70
2019-05-23T12:30:41.072Z,58.50
2019-05-23T12:33:09.509Z,68.50
2019-05-23T12:35:37.900Z,66.20
2019-05-23T12:38:06.469Z,61.00
2019-05-23T12:40:35.000Z,58.80
2019-05-23T12:43:03.568Z,59.80
2019-05-23T12:45:31.994Z,59.30
2019-05-23T12:48:02.048Z,60.10
2019-05-23T12:50:32.091Z,58.40
2019-05-23T12:53:00.478Z,57.80
2019-05-23T12:55:28.871Z,60.60
2019-05-23T12:57:57.291Z,60.00
2019-05-23T13:00:27.434Z,59.70
2019-05-23T13:02:56.440Z,57.30
2019-05-23T13:05:25.228Z,58.80
2019-05-23T13:07:53.729Z,65.60
2019-05-23T13:10:24.825Z,62.60
2019-05-23T13:12:53.098Z,60.70
2019-05-23T13:15:22.330Z,70.90
2019-05-23T13:17:50.957Z,63.30
2019-05-23T13:20:19.648Z,61.50
2019-05-23T13:22:48.357Z,60.00
2019-05-23T13:25:17.461Z,61.80
2019-05-23T13:27:45.947Z,61.40
2019-05-23T13:30:14.775Z,59.10
2019-05-23T13:32:43.209Z,59.80
2019-05-23T13:35:11.802Z,59.20
2019-05-23T13:37:53.282Z,58.50
2019-05-23T13:40:11.042Z,64.10
2019-05-23T13:42:39.439Z,59.30
2019-05-23T13:45:11.117Z,83.10
2019-05-23T13:47:39.839Z,59.00
2019-05-23T13:50:08.789Z,59.10
2019-05-23T13:52:37.515Z,59.20
2019-05-23T13:55:06.662Z,61.90
2019-05-23T13:57:36.214Z,58.80
2019-05-23T14:00:07.994Z,61.20
2019-05-23T14:02:38.314Z,65.50
2019-05-23T14:05:06.605Z,86.10
2019-05-23T14:07:35.838Z,61.30
2019-05-23T14:10:07.501Z,59.40
2019-05-23T14:12:36.053Z,60.20
2019-05-23T14:15:10.293Z,59.40
2019-05-23T14:17:45.914Z,59.80
2019-05-23T14:20:15.584Z,59.40
2019-05-23T14:22:58.449Z,61.40
2019-05-23T14:25:26.854Z,63.80
2019-05-23T14:27:56.900Z,62.50
2019-05-23T14:30:29.892Z,61.10
2019-05-23T14:33:12.487Z,61.50
2019-05-23T14:35:42.877Z,61.40
2019-05-23T14:38:29.229Z,63.00
2019-05-23T14:40:44.414Z,74.50
2019-05-23T14:43:26.215Z,62.20
2019-05-23T14:45:56.257Z,80.00
2019-05-23T14:48:29.311Z,60.60
2019-05-23T14:53:58.183Z,63.40
2019-05-23T14:56:28.381Z,58.40
2019-05-23T14:58:56.791Z,61.20
2019-05-23T15:01:26.909Z,61.90
2019-05-23T15:03:55.473Z,67.00
2019-05-23T15:06:23.876Z,61.70
2019-05-23T15:08:52.443Z,67.90
2019-05-23T15:11:21.207Z,61.40
2019-05-23T15:13:49.969Z,60.60
2019-05-23T15:16:18.734Z,61.90
2019-05-23T15:18:47.212Z,59.80
2019-05-23T15:21:15.752Z,60.60
2019-05-23T15:23:44.136Z,62.60
2019-05-23T15:26:22.239Z,63.00
2019-05-23T15:28:42.674Z,67.60
2019-05-23T15:31:11.482Z,63.00
2019-05-23T15:33:40.118Z,69.00
2019-05-23T15:36:08.763Z,62.80
2019-05-23T15:38:37.151Z,62.20
2019-05-23T15:41:05.971Z,73.90
2019-05-23T15:43:34.645Z,66.40
2019-05-23T15:46:03.121Z,71.80
2019-05-23T15:48:31.514Z,62.30
2019-05-23T15:50:59.986Z,63.30
2019-05-23T15:53:41.952Z,61.00
2019-05-23T15:56:28.883Z,62.10
2019-05-23T15:58:59.312Z,63.80
2019-05-23T16:01:41.448Z,64.70
2019-05-23T16:04:11.476Z,70.30
2019-05-23T16:06:40.126Z,65.30
2019-05-23T16:09:28.003Z,68.50
2019-05-23T16:11:41.403Z,64.50
2019-05-23T16:14:09.926Z,64.20
2019-05-23T16:16:39.100Z,64.00
2019-05-23T16:19:07.767Z,64.40
2019-05-23T16:21:36.250Z,70.20
2019-05-23T16:24:06.227Z,69.20
2019-05-23T16:26:34.909Z,82.90
2019-05-23T16:29:03.897Z,63.90
2019-05-23T16:31:32.560Z,62.90
2019-05-23T16:34:01.033Z,63.20
2019-05-23T16:36:29.444Z,64.00
2019-05-23T16:38:58.115Z,64.00
2019-05-23T16:41:26.535Z,63.90
2019-05-23T16:43:54.929Z,64.70
2019-05-23T16:46:23.472Z,65.70
2019-05-23T16:48:52.120Z,65.90
2019-05-23T16:51:20.528Z,64.40
2019-05-23T16:53:48.886Z,66.10
2019-05-23T16:56:24.784Z,64.50
2019-05-23T16:59:03.354Z,66.10
2019-05-23T17:01:33.189Z,66.30
2019-05-23T17:04:03.251Z,66.80
2019-05-23T17:06:36.079Z,67.00
2019-05-23T17:09:23.796Z,67.90
2019-05-23T17:11:59.756Z,67.70
2019-05-23T17:14:32.588Z,68.30
2019-05-23T17:17:17.743Z,67.00
2019-05-23T17:19:50.523Z,69.90
2019-05-23T17:22:23.544Z,69.00
2019-05-23T17:24:53.565Z,68.90
2019-05-23T17:27:38.750Z,69.10
2019-05-23T17:30:24.165Z,69.70
2019-05-23T17:32:52.903Z,69.10
2019-05-23T17:35:21.285Z,68.70
2019-05-23T17:37:49.757Z,69.70
2019-05-23T17:40:24.828Z,70.30
2019-05-23T17:42:49.026Z,72.60
2019-05-23T17:45:18.168Z,70.70
2019-05-23T17:47:46.569Z,70.60
2019-05-23T17:50:15.019Z,71.20
2019-05-23T17:52:43.484Z,73.70
2019-05-23T17:55:12.319Z,72.50
2019-05-23T17:57:41.306Z,71.90
2019-05-23T18:00:13.314Z,71.40
2019-05-23T18:02:41.781Z,72.00
2019-05-23T18:05:10.617Z,71.50
2019-05-23T18:07:39.635Z,71.50
2019-05-23T18:10:09.823Z,72.00
2019-05-23T18:12:38.318Z,71.60
2019-05-23T18:15:08.387Z,71.90
2019-05-23T18:17:37.435Z,72.10
2019-05-23T18:20:07.133Z,72.10
2019-05-23T18:22:37.289Z,71.90
2019-05-23T18:25:09.127Z,72.60
2019-05-23T18:27:38.154Z,73.50
2019-05-23T18:30:09.806Z,72.90
2019-05-23T18:32:38.396Z,73.20
2019-05-23T18:35:09.483Z,73.10
2019-05-23T18:37:37.978Z,73.10
2019-05-23T18:40:07.090Z,73.10
2019-05-23T18:42:35.596Z,72.90
2019-05-23T18:45:06.604Z,73.40
2019-05-23T18:47:39.625Z,74.00
2019-05-23T18:50:10.052Z,73.10
2019-05-23T18:52:40.596Z,73.20
2019-05-23T18:55:09.321Z,73.80
2019-05-23T18:57:37.897Z,73.90
2019-05-23T19:00:07.353Z,74.20
2019-05-23T19:02:36.665Z,75.50
2019-05-23T19:05:08.566Z,76.20
2019-05-23T19:07:39.064Z,78.00
2019-05-23T19:10:07.245Z,77.20
2019-05-23T19:12:35.870Z,76.70
2019-05-23T19:15:06.315Z,77.00
2019-05-23T19:17:34.445Z,77.20
2019-05-23T19:20:03.407Z,78.00
2019-05-23T19:22:31.869Z,78.60
2019-05-23T19:25:00.277Z,78.80
2019-05-23T19:27:28.760Z,78.40
2019-05-23T19:29:57.740Z,78.40
2019-05-23T19:32:26.400Z,81.40
2019-05-23T19:34:55.674Z,82.80
2019-05-23T19:37:24.071Z,81.10
2019-05-23T19:39:54.020Z,83.20
2019-05-23T19:42:23.355Z,82.20
2019-05-23T19:44:51.754Z,82.30
2019-05-23T19:47:20.159Z,83.40
2019-05-23T19:49:48.573Z,83.50
2019-05-23T19:52:17.297Z,83.90
2019-05-23T19:54:45.747Z,84.30
2019-05-23T19:57:14.160Z,86.90
2019-05-23T19:59:42.641Z,85.40
2019-05-23T20:02:19.428Z,88.00
2019-05-23T20:05:06.013Z,90.00
2019-05-23T20:07:34.496Z,87.10
2019-05-23T20:10:03.656Z,86.20
2019-05-23T20:12:32.065Z,86.00
2019-05-23T20:15:00.550Z,87.10
2019-05-23T20:17:28.949Z,86.80
2019-05-23T20:19:57.429Z,89.30
2019-05-23T20:22:27.186Z,88.90
2019-05-23T20:24:55.594Z,88.20
2019-05-23T20:27:24.152Z,90.00
2019-05-23T20:29:52.783Z,91.10
2019-05-23T20:32:24.513Z,90.40
2019-05-23T20:34:52.986Z,89.70
2019-05-23T20:37:22.559Z,90.10
2019-05-23T20:39:52.348Z,90.70
2019-05-23T20:42:20.809Z,90.40
2019-05-23T20:44:49.221Z,91.80
2019-05-23T20:47:17.612Z,92.00
2019-05-23T20:49:46.007Z,90.70
2019-05-23T20:52:14.540Z,91.60
2019-05-23T20:54:42.962Z,91.30
2019-05-23T20:57:11.685Z,91.50
2019-05-23T20:59:40.405Z,92.00
2019-05-23T21:02:09.222Z,91.70
2019-05-23T21:04:37.735Z,93.30
2019-05-23T21:07:06.121Z,92.90
2019-05-23T21:09:34.508Z,93.40
2019-05-23T21:12:02.921Z,93.10
2019-05-23T21:14:31.308Z,92.70
2019-05-23T21:16:59.705Z,94.60
2019-05-23T21:19:28.177Z,94.00
2019-05-23T21:21:56.581Z,94.40
2019-05-23T21:24:24.973Z,93.70
2019-05-23T21:26:53.390Z,95.10
2019-05-23T21:29:21.778Z,94.20
2019-05-23T21:31:50.880Z,94.10
2019-05-23T21:34:22.075Z,95.30
2019-05-23T21:36:49.527Z,95.60
2019-05-23T21:39:17.975Z,95.60
2019-05-23T21:41:48.187Z,96.10
2019-05-23T21:44:16.577Z,95.20
2019-05-23T21:46:44.963Z,94.50
2019-05-23T21:49:13.423Z,96.30
2019-05-23T21:51:43.360Z,96.00
2019-05-23T21:54:11.758Z,97.10
2019-05-23T21:56:40.523Z,97.70
2019-05-23T21:59:10.440Z,97.90
2019-05-23T22:01:52.718Z,97.60
2019-05-23T22:04:25.748Z,98.40
2019-05-23T22:06:57.393Z,99.10
2019-05-23T22:09:25.947Z,97.40
2019-05-23T22:11:54.746Z,96.30
2019-05-23T22:14:23.246Z,97.40
2019-05-23T22:16:52.051Z,97.20
2019-05-23T22:19:21.853Z,97.90
2019-05-23T22:21:50.329Z,98.70
2019-05-23T22:24:19.626Z,98.40
2019-05-23T22:26:48.527Z,98.40
2019-05-23T22:29:17.091Z,97.70
2019-05-23T22:31:45.648Z,98.40
2019-05-23T22:34:27.646Z,97.40
2019-05-23T22:36:56.446Z,98.00
2019-05-23T22:39:24.912Z,98.00
2019-05-23T22:41:53.968Z,98.00
2019-05-23T22:44:22.431Z,97.80
2019-05-23T22:46:51.255Z,98.60
2019-05-23T22:49:19.643Z,98.60
2019-05-23T22:51:48.053Z,99.00
2019-05-23T22:54:16.448Z,97.90
2019-05-23T22:56:44.873Z,98.90
2019-05-23T22:59:13.237Z,98.70
2019-05-23T23:01:41.636Z,99.00
2019-05-23T23:04:10.760Z,98.30
2019-05-23T23:06:39.154Z,97.80
2019-05-23T23:09:07.828Z,98.30
2019-05-23T23:11:36.246Z,99.90
2019-05-23T23:14:06.265Z,99.90
2019-05-23T23:16:34.674Z,99.80
2019-05-23T23:19:03.574Z,99.90
2019-05-23T23:21:32.097Z,99.30
2019-05-23T23:24:00.500Z,99.90
2019-05-23T23:26:28.896Z,99.50
2019-05-23T23:28:57.304Z,99.40
2019-05-23T23:31:25.684Z,99.80
2019-05-23T23:33:54.165Z,99.90
2019-05-23T23:36:22.565Z,99.90
2019-05-23T23:38:50.985Z,99.90
2019-05-23T23:41:20.717Z,99.90
2019-05-23T23:43:58.904Z,99.90
2019-05-23T23:46:37.275Z,99.90
2019-05-23T23:49:23.871Z,99.90
2019-05-23T23:52:10.190Z,99.90
2019-05-23T23:54:56.675Z,99.90
2019-05-23T23:57:42.905Z,99.90
